HEAX

El Nouzha Airport

Alexandria, Egypt
METAR HEAX 191900Z 01008KT CAVOK 25/19 Q1011 NOSIG
Observed Flight Rules
Jun-19 @ 19:00 UTC (an hour ago) Visual Flight Rules
Wind Visibility Clouds
10° at 8 knots 10,000+ meters
  • Clear skies
Temperatures Readings
Current 25°C / 77°F
Dewpoint 19°C / 66°F
Humidity 69%
Altimeter 29.85" Hg
Pressure 1011 hPa
Elevation 7
METAR HEAX 191900Z 01008KT CAVOK 25/19 Q1011 NOSIG
Observed Flight Rules
Jun-19 @ 19:00 UTC
(an hour ago)
VFR
Wind Visibility
10° at 8 knots 10,000+ meters
Clouds
  • Clear skies
Temperature Dewpoint
25°C / 77°F 19°C / 66°F
Humidity Altimeter Pressure
69% 29.85" Hg 1011 hPa